createdAt,value
2023-02-03T00:02:13.379Z,5.00
2023-02-03T00:04:45.380Z,5.68
2023-02-03T00:07:17.312Z,6.00
2023-02-03T00:09:49.299Z,6.22
2023-02-03T00:12:21.255Z,7.00
2023-02-03T00:14:53.162Z,5.75
2023-02-03T00:17:25.137Z,6.45
2023-02-03T00:19:57.047Z,7.43
2023-02-03T00:22:29.029Z,7.18
2023-02-03T00:25:00.945Z,5.80
2023-02-03T00:27:33.074Z,6.38
2023-02-03T00:30:05.592Z,5.85
2023-02-03T00:32:37.957Z,5.60
2023-02-03T00:35:09.983Z,5.63
2023-02-03T00:37:42.035Z,6.30
2023-02-03T00:40:14.145Z,4.90
2023-02-03T00:42:46.131Z,5.07
2023-02-03T00:45:18.233Z,4.35
2023-02-03T00:47:50.156Z,4.57
2023-02-03T00:50:22.077Z,5.10
2023-02-03T00:52:54.991Z,4.60
2023-02-03T00:55:26.942Z,5.10
2023-02-03T00:57:58.882Z,4.55
2023-02-03T01:00:30.849Z,4.55
2023-02-03T01:03:02.771Z,4.93
2023-02-03T01:05:34.698Z,4.95
2023-02-03T01:08:06.692Z,5.38
2023-02-03T01:10:39.364Z,5.13
2023-02-03T01:13:11.301Z,4.72
2023-02-03T01:15:51.029Z,5.18
2023-02-03T01:18:22.956Z,5.15
2023-02-03T01:20:54.909Z,4.57
2023-02-03T01:23:26.838Z,4.88
2023-02-03T01:26:03.319Z,4.15
2023-02-03T01:28:35.548Z,4.47
2023-02-03T01:31:13.689Z,4.45
2023-02-03T01:33:48.566Z,4.13
2023-02-03T01:36:22.725Z,3.45
2023-02-03T01:38:54.749Z,3.90
2023-02-03T01:41:33.273Z,3.85
2023-02-03T01:44:44.111Z,3.75
2023-02-03T01:47:31.363Z,3.55
2023-02-03T01:50:21.483Z,4.40
2023-02-03T01:53:19.735Z,3.92
2023-02-03T01:55:52.202Z,4.38
2023-02-03T01:58:28.462Z,3.90
2023-02-03T02:01:00.608Z,5.00
2023-02-03T02:03:43.094Z,8.75
2023-02-03T02:06:15.242Z,3.70
2023-02-03T02:08:50.695Z,3.80
2023-02-03T02:11:22.806Z,3.78
2023-02-03T02:13:59.491Z,5.10
2023-02-03T02:16:55.780Z,3.80
2023-02-03T02:19:39.733Z,3.42
2023-02-03T02:22:39.665Z,4.13
2023-02-03T02:25:49.352Z,4.00
2023-02-03T02:28:39.369Z,3.70
2023-02-03T02:31:41.824Z,4.03
2023-02-03T02:34:40.976Z,4.05
2023-02-03T02:37:35.529Z,4.03
2023-02-03T02:40:40.787Z,3.90
2023-02-03T02:43:18.302Z,3.72
2023-02-03T02:46:00.546Z,3.05
2023-02-03T02:48:38.474Z,3.35
2023-02-03T02:51:13.177Z,3.60
2023-02-03T02:54:08.818Z,3.30
2023-02-03T02:56:44.217Z,3.35
2023-02-03T02:59:16.233Z,3.25
2023-02-03T03:01:48.215Z,3.08
2023-02-03T03:04:25.674Z,3.78
2023-02-03T03:07:01.976Z,3.50
2023-02-03T03:09:40.758Z,3.10
2023-02-03T03:12:17.213Z,3.67
2023-02-03T03:14:54.110Z,2.85
2023-02-03T03:17:41.350Z,3.67
2023-02-03T03:20:18.906Z,3.40
2023-02-03T03:23:03.581Z,2.72
2023-02-03T03:25:41.942Z,3.10
2023-02-03T03:28:27.148Z,3.20
2023-02-03T03:30:59.387Z,3.20
2023-02-03T03:33:31.556Z,3.53
2023-02-03T03:36:07.563Z,3.53
2023-02-03T03:38:50.384Z,3.90
2023-02-03T03:41:36.862Z,4.00
2023-02-03T03:44:13.521Z,3.95
2023-02-03T03:46:51.697Z,4.13
2023-02-03T03:49:26.856Z,4.68
2023-02-03T03:52:05.133Z,4.28
2023-02-03T03:54:38.977Z,4.18
2023-02-03T03:57:21.750Z,4.13
2023-02-03T03:59:55.242Z,4.55
2023-02-03T04:02:28.607Z,5.03
2023-02-03T04:05:03.114Z,4.75
2023-02-03T04:07:46.680Z,4.60
2023-02-03T04:10:30.349Z,5.05
2023-02-03T04:13:04.318Z,4.78
2023-02-03T04:15:36.749Z,4.60
2023-02-03T04:18:08.696Z,5.03
2023-02-03T04:20:40.768Z,5.07
2023-02-03T04:23:12.785Z,4.85
2023-02-03T04:25:44.724Z,5.53
2023-02-03T04:28:16.717Z,5.63
2023-02-03T04:30:48.722Z,4.80
2023-02-03T04:33:20.771Z,5.55
2023-02-03T04:35:53.030Z,5.03
2023-02-03T04:38:25.224Z,4.78
2023-02-03T04:40:57.239Z,5.05
2023-02-03T04:43:29.232Z,5.13
2023-02-03T04:46:01.641Z,6.43
2023-02-03T04:48:33.598Z,8.18
2023-02-03T04:51:07.961Z,6.93
2023-02-03T04:53:40.125Z,7.05
2023-02-03T04:56:12.050Z,7.82
2023-02-03T04:58:43.996Z,7.35
2023-02-03T05:01:15.986Z,8.68
2023-02-03T05:03:48.001Z,7.97
2023-02-03T05:06:29.088Z,7.22
2023-02-03T05:09:01.161Z,7.60
2023-02-03T05:11:33.292Z,11.70
2023-02-03T05:14:05.357Z,11.27
2023-02-03T05:16:37.318Z,8.45
2023-02-03T05:19:09.374Z,10.77
2023-02-03T05:21:41.343Z,9.45
2023-02-03T05:24:13.319Z,11.25
2023-02-03T05:26:45.276Z,11.77
2023-02-03T05:29:17.187Z,12.73
2023-02-03T05:31:49.263Z,13.05
2023-02-03T05:34:21.343Z,9.98
2023-02-03T05:36:53.474Z,9.52
2023-02-03T05:39:25.451Z,11.00
2023-02-03T05:41:58.625Z,12.27
2023-02-03T05:44:31.500Z,36.95
2023-02-03T05:47:03.479Z,39.58
2023-02-03T05:49:35.445Z,31.40
2023-02-03T05:52:07.416Z,28.85
2023-02-03T05:54:39.312Z,22.25
2023-02-03T05:57:11.740Z,15.70
2023-02-03T05:59:43.680Z,12.02
2023-02-03T06:02:15.776Z,11.05
2023-02-03T06:04:47.784Z,11.00
2023-02-03T06:07:19.811Z,9.88
2023-02-03T06:09:51.755Z,10.25
2023-02-03T06:12:23.756Z,9.80
2023-02-03T06:14:58.840Z,9.40
2023-02-03T06:17:30.841Z,11.75
2023-02-03T06:20:04.733Z,15.73
2023-02-03T06:22:36.660Z,16.52
2023-02-03T06:25:11.801Z,18.98
2023-02-03T06:27:44.859Z,17.10
2023-02-03T06:30:18.054Z,17.58
2023-02-03T06:32:50.419Z,14.85
2023-02-03T06:35:22.417Z,14.55
2023-02-03T06:37:54.483Z,12.88
2023-02-03T06:40:26.877Z,14.40
2023-02-03T06:42:59.157Z,11.95
2023-02-03T06:45:31.150Z,9.50
2023-02-03T06:48:03.173Z,10.25
2023-02-03T06:50:35.086Z,18.70
2023-02-03T06:53:07.111Z,28.90
2023-02-03T06:55:39.032Z,38.55
2023-02-03T06:58:11.121Z,41.70
2023-02-03T07:00:43.283Z,40.55
2023-02-03T07:03:15.287Z,34.78
2023-02-03T07:05:47.288Z,31.25
2023-02-03T07:08:19.317Z,28.88
2023-02-03T07:10:55.470Z,25.92
2023-02-03T07:13:27.461Z,30.52
2023-02-03T07:15:59.586Z,36.95
2023-02-03T07:18:48.236Z,29.23
2023-02-03T07:21:20.186Z,21.98
2023-02-03T07:23:54.071Z,15.43
2023-02-03T07:26:26.847Z,14.48
2023-02-03T07:29:01.026Z,10.90
2023-02-03T07:31:33.061Z,12.77
2023-02-03T07:34:06.634Z,14.85
2023-02-03T07:36:38.701Z,13.18
2023-02-03T07:39:10.617Z,12.07
2023-02-03T07:41:42.447Z,8.15
2023-02-03T07:44:14.390Z,8.07
2023-02-03T07:46:46.352Z,9.98
2023-02-03T07:49:18.293Z,11.77
2023-02-03T07:51:50.112Z,13.95
2023-02-03T07:54:22.018Z,13.98
2023-02-03T07:56:54.728Z,9.88
2023-02-03T07:59:26.706Z,8.40
2023-02-03T08:01:58.764Z,8.85
2023-02-03T08:04:30.786Z,7.38
2023-02-03T08:07:02.904Z,8.10
2023-02-03T08:09:35.186Z,8.00
2023-02-03T08:12:07.094Z,7.57
2023-02-03T08:14:39.043Z,6.20
2023-02-03T08:17:10.952Z,5.63
2023-02-03T08:19:43.647Z,5.80
2023-02-03T08:22:19.498Z,6.22
2023-02-03T08:24:51.498Z,6.53
2023-02-03T08:27:23.802Z,6.50
2023-02-03T08:29:55.662Z,12.98
2023-02-03T08:32:28.115Z,12.10
2023-02-03T08:35:00.160Z,6.38
2023-02-03T08:37:32.966Z,6.72
2023-02-03T08:40:06.180Z,5.65
2023-02-03T08:42:38.560Z,7.47
2023-02-03T08:45:11.035Z,5.45
2023-02-03T08:47:43.323Z,5.20
2023-02-03T08:50:15.455Z,6.38
2023-02-03T08:52:47.388Z,9.95
2023-02-03T08:55:19.333Z,7.82
2023-02-03T08:57:51.253Z,10.40
2023-02-03T09:00:23.352Z,8.40
2023-02-03T09:02:55.341Z,5.60
2023-02-03T09:05:27.321Z,4.25
2023-02-03T09:07:59.444Z,4.82
2023-02-03T09:10:31.498Z,4.63
2023-02-03T09:13:03.587Z,5.13
2023-02-03T09:15:35.551Z,5.60
2023-02-03T09:18:07.494Z,6.50
2023-02-03T09:20:39.447Z,4.97
2023-02-03T09:23:11.502Z,4.10
2023-02-03T09:25:46.722Z,3.88
2023-02-03T09:28:19.872Z,3.85
2023-02-03T09:30:51.889Z,3.47
2023-02-03T09:33:23.861Z,4.53
2023-02-03T09:35:57.392Z,3.42
2023-02-03T09:38:29.790Z,4.32
2023-02-03T09:41:18.832Z,4.93
2023-02-03T09:44:20.895Z,4.35
2023-02-03T09:46:59.216Z,4.00
2023-02-03T09:49:41.391Z,4.72
2023-02-03T09:52:28.660Z,4.10
2023-02-03T09:55:28.386Z,4.40
2023-02-03T09:58:05.766Z,6.95
2023-02-03T10:00:43.699Z,3.20
2023-02-03T10:03:22.401Z,2.60
2023-02-03T10:06:19.086Z,3.05
2023-02-03T10:09:30.126Z,8.73
2023-02-03T10:14:49.119Z,2.88
2023-02-03T10:17:40.473Z,3.20
2023-02-03T10:20:18.647Z,8.85
2023-02-03T10:22:58.856Z,4.30
2023-02-03T10:25:42.870Z,2.85
2023-02-03T10:28:20.984Z,3.47
2023-02-03T10:31:01.440Z,3.08
2023-02-03T10:33:34.874Z,2.50
2023-02-03T10:36:19.152Z,3.05
2023-02-03T10:39:10.909Z,3.25
2023-02-03T10:41:42.906Z,3.30
2023-02-03T10:44:16.239Z,2.70
2023-02-03T10:46:48.205Z,4.05
2023-02-03T10:49:21.715Z,3.03
2023-02-03T10:51:58.302Z,3.33
2023-02-03T10:54:35.815Z,3.22
2023-02-03T10:57:14.710Z,2.28
2023-02-03T10:59:48.412Z,4.72
2023-02-03T11:02:26.182Z,5.13
2023-02-03T11:05:12.113Z,2.40
2023-02-03T11:07:45.561Z,3.92
2023-02-03T11:10:39.709Z,3.92
2023-02-03T11:13:22.134Z,3.92
2023-02-03T11:16:13.594Z,3.30
2023-02-03T11:18:54.925Z,2.90
2023-02-03T11:21:38.887Z,3.28
2023-02-03T11:24:26.401Z,3.58
2023-02-03T11:27:15.199Z,5.25
2023-02-03T11:29:50.680Z,3.80
2023-02-03T11:32:38.585Z,3.70
2023-02-03T11:35:16.505Z,4.18
2023-02-03T11:37:51.833Z,11.60
2023-02-03T11:40:31.476Z,8.88
2023-02-03T11:43:14.287Z,18.55
2023-02-03T11:45:52.013Z,3.97
2023-02-03T11:48:31.387Z,7.18
2023-02-03T11:51:37.413Z,8.85
2023-02-03T11:54:20.996Z,6.90
2023-02-03T11:56:58.903Z,5.20
2023-02-03T11:59:34.064Z,5.32
2023-02-03T12:02:39.842Z,4.80
2023-02-03T12:05:29.449Z,4.22
2023-02-03T12:08:15.138Z,4.25
2023-02-03T12:11:15.576Z,5.47
2023-02-03T12:14:26.126Z,5.80
2023-02-03T12:17:08.684Z,4.35
2023-02-03T12:20:21.327Z,5.68
2023-02-03T12:23:31.195Z,4.47
2023-02-03T12:26:45.402Z,6.35
2023-02-03T12:29:32.379Z,5.90
2023-02-03T12:32:14.869Z,5.75
2023-02-03T12:34:55.875Z,8.98
2023-02-03T12:37:46.223Z,5.57
2023-02-03T12:40:40.792Z,6.20
2023-02-03T12:43:31.154Z,6.88
2023-02-03T12:46:10.954Z,4.18
2023-02-03T12:48:52.420Z,4.90
2023-02-03T12:51:47.061Z,4.60
2023-02-03T12:54:31.339Z,5.35
2023-02-03T12:57:24.666Z,6.90
2023-02-03T13:00:13.995Z,7.22
2023-02-03T13:03:02.743Z,6.57
2023-02-03T13:05:44.007Z,6.28
2023-02-03T13:08:35.333Z,6.03
2023-02-03T13:11:19.290Z,5.45
2023-02-03T13:14:40.822Z,6.10
2023-02-03T13:17:26.663Z,5.60
2023-02-03T13:20:14.407Z,7.03
2023-02-03T13:22:46.897Z,6.45
2023-02-03T13:25:57.771Z,6.57
2023-02-03T13:28:56.188Z,5.82
2023-02-03T13:31:57.140Z,6.38
2023-02-03T13:37:19.465Z,6.90
2023-02-03T13:39:51.419Z,7.50
2023-02-03T13:42:23.400Z,10.20
2023-02-03T13:45:23.809Z,10.65
2023-02-03T13:48:02.442Z,10.20
2023-02-03T13:50:35.402Z,6.90
2023-02-03T13:53:23.959Z,7.78
2023-02-03T13:56:04.918Z,8.02
2023-02-03T13:58:39.558Z,9.55
2023-02-03T14:01:28.813Z,7.82
2023-02-03T14:04:01.961Z,8.05
2023-02-03T14:06:40.203Z,10.15
2023-02-03T14:09:30.736Z,9.82
2023-02-03T14:12:31.072Z,9.63
2023-02-03T14:15:31.566Z,11.45
2023-02-03T14:18:07.540Z,13.05
2023-02-03T14:20:42.710Z,10.00
2023-02-03T14:23:27.911Z,10.13
2023-02-03T14:26:01.192Z,10.38
2023-02-03T14:28:46.061Z,10.82
2023-02-03T14:31:25.701Z,10.25
2023-02-03T14:34:05.967Z,9.43
2023-02-03T14:36:42.909Z,10.35
2023-02-03T14:39:20.647Z,10.45
2023-02-03T14:42:25.280Z,10.70
2023-02-03T14:45:06.085Z,9.15
2023-02-03T14:50:37.676Z,9.43
2023-02-03T14:53:30.578Z,9.60
2023-02-03T14:56:31.685Z,10.10
2023-02-03T14:59:10.037Z,9.15
2023-02-03T15:01:42.054Z,9.13
2023-02-03T15:04:13.974Z,9.02
2023-02-03T15:06:48.648Z,8.85
2023-02-03T15:09:48.764Z,9.90
2023-02-03T15:12:26.792Z,9.60
2023-02-03T15:15:20.207Z,10.40
2023-02-03T15:17:55.298Z,9.60
2023-02-03T15:20:44.342Z,10.43
2023-02-03T15:23:24.913Z,9.90
2023-02-03T15:26:11.243Z,9.45
2023-02-03T15:28:43.180Z,10.80
2023-02-03T15:31:32.768Z,10.57
2023-02-03T15:34:17.042Z,12.90
2023-02-03T15:36:53.141Z,11.07
2023-02-03T15:39:44.128Z,11.52
2023-02-03T15:42:39.920Z,12.15
2023-02-03T15:45:23.888Z,12.43
2023-02-03T15:48:27.035Z,11.77
2023-02-03T15:51:05.393Z,12.25
2023-02-03T15:53:47.804Z,14.02
2023-02-03T15:56:35.589Z,13.15
2023-02-03T15:59:25.452Z,14.10
2023-02-03T16:01:57.704Z,14.90
2023-02-03T16:04:33.831Z,15.90
2023-02-03T16:07:06.022Z,16.85
2023-02-03T16:09:41.938Z,15.85
2023-02-03T16:12:24.641Z,16.02
2023-02-03T16:14:58.367Z,17.08
2023-02-03T16:17:33.666Z,16.27
2023-02-03T16:20:11.805Z,17.75
2023-02-03T16:23:07.844Z,15.68
2023-02-03T16:25:39.873Z,16.52
2023-02-03T16:28:36.040Z,15.55
2023-02-03T16:31:36.397Z,14.35
2023-02-03T16:34:37.279Z,15.65
2023-02-03T16:40:38.439Z,13.48
2023-02-03T16:43:34.091Z,14.80
2023-02-03T16:46:30.291Z,15.82
2023-02-03T16:49:21.064Z,14.90
2023-02-03T16:54:24.885Z,16.42
2023-02-03T16:56:58.700Z,15.93
2023-02-03T16:59:31.256Z,14.52
2023-02-03T17:02:03.260Z,17.08
2023-02-03T17:04:36.668Z,16.00
2023-02-03T17:07:08.852Z,15.50
2023-02-03T17:09:40.812Z,14.07
2023-02-03T17:12:12.826Z,13.02
2023-02-03T17:14:44.949Z,14.38
2023-02-03T17:17:16.888Z,15.30
2023-02-03T17:19:48.817Z,14.48
2023-02-03T17:22:20.796Z,14.23
2023-02-03T17:24:52.952Z,14.35
2023-02-03T17:27:25.030Z,15.35
2023-02-03T17:29:56.949Z,15.07
2023-02-03T17:32:28.972Z,14.75
2023-02-03T17:35:00.880Z,14.60
2023-02-03T17:37:33.651Z,16.15
2023-02-03T17:54:06.668Z,13.60
2023-02-03T17:56:38.688Z,15.38
2023-02-03T17:59:10.614Z,14.90
2023-02-03T18:01:43.020Z,14.77
2023-02-03T18:04:15.248Z,14.18
2023-02-03T18:06:47.167Z,15.25
2023-02-03T18:09:18.995Z,16.00
2023-02-03T18:11:50.934Z,15.98
2023-02-03T18:14:23.025Z,15.60
2023-02-03T18:16:54.982Z,15.90
2023-02-03T18:19:27.444Z,14.98
2023-02-03T18:22:00.327Z,15.40
2023-02-03T18:24:32.396Z,14.85
2023-02-03T18:27:04.620Z,17.15
2023-02-03T18:29:36.560Z,16.90
2023-02-03T18:32:08.466Z,16.98
2023-02-03T18:34:40.964Z,18.50
2023-02-03T18:37:13.045Z,19.45
2023-02-03T18:39:44.988Z,19.45
2023-02-03T18:42:16.985Z,21.48
2023-02-03T18:44:48.914Z,19.02
2023-02-03T18:47:20.846Z,21.33
2023-02-03T18:49:52.815Z,24.10
2023-02-03T18:52:24.814Z,23.42
2023-02-03T18:54:56.764Z,23.45
2023-02-03T18:57:28.966Z,24.70
2023-02-03T19:00:01.017Z,23.10
2023-02-03T19:02:34.683Z,20.67
2023-02-03T19:05:07.857Z,20.65
2023-02-03T19:07:39.866Z,26.30
2023-02-03T19:10:12.148Z,31.42
2023-02-03T19:12:44.197Z,31.80
2023-02-03T19:15:16.357Z,33.53
2023-02-03T19:17:48.343Z,33.28
2023-02-03T19:20:20.528Z,27.52
2023-02-03T19:22:54.221Z,31.25
2023-02-03T19:25:26.728Z,33.00
2023-02-03T19:27:58.803Z,34.42
2023-02-03T19:30:32.492Z,34.42
2023-02-03T19:33:04.961Z,31.30
2023-02-03T19:35:37.112Z,28.02
2023-02-03T19:38:09.511Z,29.58
2023-02-03T19:40:41.420Z,28.85
2023-02-03T19:43:13.623Z,28.55
2023-02-03T19:45:45.593Z,23.50
2023-02-03T19:48:17.603Z,22.33
2023-02-03T19:50:49.805Z,26.98
2023-02-03T19:53:21.982Z,26.13
2023-02-03T19:55:53.919Z,23.55
2023-02-03T19:58:25.900Z,23.83
2023-02-03T20:00:57.847Z,25.48
2023-02-03T20:03:29.801Z,21.63
2023-02-03T20:06:01.758Z,29.33
2023-02-03T20:08:33.737Z,23.88
2023-02-03T20:11:06.099Z,26.20
2023-02-03T20:13:38.129Z,20.00
2023-02-03T20:16:10.094Z,24.08
2023-02-03T20:18:42.053Z,34.70
2023-02-03T20:21:14.587Z,33.45
2023-02-03T20:23:46.601Z,40.00
2023-02-03T20:26:18.571Z,36.35
2023-02-03T20:28:50.519Z,37.03
2023-02-03T20:31:22.628Z,32.47
2023-02-03T20:33:54.701Z,34.47
2023-02-03T20:36:26.664Z,34.03
2023-02-03T20:38:58.815Z,27.90
2023-02-03T20:41:30.729Z,25.15
2023-02-03T20:44:02.856Z,23.58
2023-02-03T20:46:34.843Z,25.63
2023-02-03T20:49:12.177Z,25.75
2023-02-03T20:51:44.140Z,24.20
2023-02-03T20:54:21.930Z,22.33
2023-02-03T20:56:53.846Z,23.40
2023-02-03T20:59:25.727Z,25.13
2023-02-03T21:01:59.264Z,23.73
2023-02-03T21:04:49.944Z,23.70
2023-02-03T21:07:23.357Z,25.10
2023-02-03T21:09:55.779Z,24.88
2023-02-03T21:12:28.993Z,26.08
2023-02-03T21:15:01.283Z,24.92
2023-02-03T21:17:36.152Z,25.73
2023-02-03T21:20:24.481Z,28.35
2023-02-03T21:22:56.875Z,25.13
2023-02-03T21:25:32.483Z,25.13
2023-02-03T21:28:04.582Z,27.15
2023-02-03T21:30:36.938Z,27.45
2023-02-03T21:33:36.319Z,28.05
2023-02-03T21:36:38.122Z,25.13
2023-02-03T21:39:28.775Z,27.00
2023-02-03T21:42:39.578Z,24.55
2023-02-03T21:47:51.507Z,22.52
2023-02-03T21:50:34.925Z,21.63
2023-02-03T21:53:10.165Z,24.83
2023-02-03T21:55:42.961Z,21.92
2023-02-03T21:58:36.563Z,22.92
2023-02-03T22:01:08.860Z,23.77
2023-02-03T22:03:43.531Z,23.40
2023-02-03T22:06:34.210Z,23.65
2023-02-03T22:09:06.731Z,22.05
2023-02-03T22:11:39.475Z,28.88
2023-02-03T22:14:13.598Z,24.60
2023-02-03T22:16:45.556Z,23.20
2023-02-03T22:19:17.934Z,25.90
2023-02-03T22:21:51.209Z,31.60
2023-02-03T22:24:23.142Z,31.67
2023-02-03T22:27:00.401Z,28.38
2023-02-03T22:29:32.275Z,29.42
2023-02-03T22:32:04.254Z,28.92
2023-02-03T22:34:36.201Z,28.90
2023-02-03T22:37:08.221Z,29.50
2023-02-03T22:39:40.101Z,27.85
2023-02-03T22:42:12.115Z,27.35
2023-02-03T22:44:44.071Z,27.08
2023-02-03T22:47:16.039Z,26.13
2023-02-03T22:49:47.981Z,24.33
2023-02-03T22:52:19.910Z,23.25
2023-02-03T22:54:51.905Z,23.08
2023-02-03T22:57:24.151Z,21.17
2023-02-03T22:59:56.006Z,20.08
2023-02-03T23:02:27.997Z,23.20
2023-02-03T23:04:59.983Z,23.25
2023-02-03T23:07:32.006Z,24.02
2023-02-03T23:10:05.293Z,23.77
2023-02-03T23:12:37.618Z,22.80
2023-02-03T23:15:13.670Z,23.27
2023-02-03T23:17:46.124Z,23.92
2023-02-03T23:20:18.547Z,22.90
2023-02-03T23:22:50.497Z,23.00
2023-02-03T23:25:22.627Z,23.02
2023-02-03T23:27:54.679Z,20.52
2023-02-03T23:30:26.939Z,22.23
2023-02-03T23:32:58.860Z,20.27
2023-02-03T23:35:46.007Z,20.27
2023-02-03T23:38:18.432Z,21.73
2023-02-03T23:40:50.420Z,18.27
2023-02-03T23:43:22.316Z,21.00
2023-02-03T23:45:54.383Z,17.55
2023-02-03T23:48:26.325Z,18.20
2023-02-03T23:50:58.744Z,17.42
2023-02-03T23:53:30.664Z,16.60
2023-02-03T23:56:02.599Z,18.88
2023-02-03T23:58:34.545Z,19.90
